Main page
METAR-TAF:

METAR-TAF

Airports :

Olsztyn-Mazury Airport

Olsztyn, Poland

latitude: 53-28-55N, longitude: 20-56-16E, elevation: 141 m

Current weather observation

The report was made 34 minutes ago, at 16:00 UTC
Wind 8 kt from the South/Southeast, varying between Southeast and South
Temperature 23°C
Humidity 38%
Pressure 1011 hPa
Visibility 10 km or more
no clouds below 1500 m and no cumulonimbus

METAR: EPSY 151600Z 16008KT 130V190 CAVOK 23/08 Q1011

Time: 18:34 (16:34 UTC)

Forecast

The report was made 2 hours and 4 minutes ago, at 14:30 UTC
Forecast valid from 15 at 15 UTC to 15 at 24 UTC
Wind 10 kt from the South
Visibility 10 km or more
no clouds below 1500 m and no cumulonimbus

TAF: EPSY 151430Z 1515/1524 18010KT CAVOK

Weather observations and forecasts of more than 4000 airports (METAR and TAF reports).

The available stations are represented by yellow and red dots on the map.

Hover mouse over dot to see the name of the station.

Then click to see weather observations and forecasts.

To change the map : click on the green buttons with a black cross to zoom in, on the green button with a dash to zoom out, or on the green arrows for adjacent maps.


METAR-TAF: